Time;durP1;ratioP1;P1;durP2;ratioP2;P2;SDS_P1;SDS_P2;PMS_P1;PMS_P2;Temp;Humidity;BMP_temperature;BMP_pressure;BME280_temperature;BME280_humidity;BME280_pressure;Samples;Min_cycle;Max_cycle;Signal;HPM_P1;HPM_P2
2023/04/23 00:06:11;;;;;;;56.90;30.90;;;;;;;9.25;51.86;98256.02;437855;1250;96645;-41
2023/04/23 00:16:20;;;;;;;55.90;30.20;;;;;;;9.13;52.31;98251.23;437808;1249;97883;-41
2023/04/23 00:26:26;;;;;;;47.70;28.80;;;;;;;9.03;52.66;98240.14;437727;1250;109656;-42
2023/04/23 00:36:33;;;;;;;47.30;28.90;;;;;;;8.93;52.87;98240.89;437353;1250;107446;-41
2023/04/23 00:46:42;;;;;;;46.70;27.20;;;;;;;8.88;53.24;98232.95;437684;1250;108522;-42
2023/04/23 00:56:48;;;;;;;42.20;24.70;;;;;;;8.89;53.40;98230.66;437725;1247;97973;-42
2023/04/23 01:06:56;;;;;;;38.30;24.40;;;;;;;8.83;53.53;98228.09;437771;1250;111882;-41
2023/04/23 01:17:04;;;;;;;46.90;27.00;;;;;;;8.73;53.62;98238.02;437581;1249;107493;-41
2023/04/23 01:27:12;;;;;;;45.60;24.90;;;;;;;8.61;54.11;98235.49;438344;1250;96984;-41
2023/04/23 01:37:20;;;;;;;36.00;21.00;;;;;;;8.54;54.44;98234.70;437374;1252;96927;-42
2023/04/23 01:47:28;;;;;;;29.10;18.70;;;;;;;8.55;54.63;98230.52;437377;1247;109645;-41
2023/04/23 01:57:35;;;;;;;31.20;17.50;;;;;;;8.59;54.58;98224.90;437297;1253;107919;-41
2023/04/23 02:07:44;;;;;;;31.50;17.20;;;;;;;8.57;54.51;98220.39;437224;1252;96555;-42
2023/04/23 02:17:51;;;;;;;26.40;15.90;;;;;;;8.56;54.51;98218.92;437343;1250;98120;-42
2023/04/23 02:38:06;;;;;;;33.50;16.30;;;;;;;8.31;55.16;98207.11;437238;1252;108476;-40
2023/04/23 02:48:14;;;;;;;28.20;16.70;;;;;;;8.17;55.66;98204.05;437191;1252;107474;-41
2023/04/23 02:58:21;;;;;;;31.10;17.30;;;;;;;8.06;56.02;98201.23;437209;1252;97977;-42
2023/04/23 03:08:28;;;;;;;36.30;18.30;;;;;;;7.93;56.73;98197.67;437168;1250;110209;-41
2023/04/23 03:18:35;;;;;;;33.30;18.40;;;;;;;7.79;57.27;98193.50;437272;1247;107550;-42
2023/04/23 03:38:48;;;;;;;30.10;17.70;;;;;;;7.74;57.63;98189.54;437538;1252;97649;-41
2023/04/23 03:48:56;;;;;;;24.60;16.40;;;;;;;7.78;57.83;98190.95;437685;1251;110623;-40
2023/04/23 03:59:02;;;;;;;29.30;17.40;;;;;;;7.86;58.01;98197.14;437248;1250;106588;-40
2023/04/23 04:09:10;;;;;;;29.70;16.70;;;;;;;8.02;57.91;98198.98;437143;1250;97899;-40
2023/04/23 04:19:17;;;;;;;28.80;16.60;;;;;;;8.17;57.95;98200.73;437272;1250;96627;-42
2023/04/23 04:29:25;;;;;;;33.70;17.20;;;;;;;8.70;57.84;98199.89;437207;1253;110575;-41
2023/04/23 04:39:32;;;;;;;35.80;19.40;;;;;;;9.70;57.34;98201.77;437057;1247;107714;-40
2023/04/23 04:49:39;;;;;;;34.90;20.10;;;;;;;10.18;56.70;98199.52;436964;1260;97792;-41
2023/04/23 04:59:46;;;;;;;30.40;17.20;;;;;;;10.99;56.12;98198.27;437183;1251;109757;-39
2023/04/23 05:09:53;;;;;;;28.10;18.20;;;;;;;12.05;55.15;98206.36;437052;1260;108666;-41
2023/04/23 05:20:01;;;;;;;36.10;19.30;;;;;;;12.79;53.55;98201.37;437013;1250;97961;-42
2023/04/23 05:30:11;;;;;;;33.30;18.90;;;;;;;13.09;52.36;98201.20;436980;1250;109761;-41
2023/04/23 05:40:18;;;;;;;32.40;18.10;;;;;;;14.11;52.13;98195.39;436835;1250;107498;-42
2023/04/23 05:50:25;;;;;;;29.20;17.80;;;;;;;14.99;51.07;98192.06;437025;1248;97455;-42
2023/04/23 06:00:34;;;;;;;29.10;18.30;;;;;;;15.83;49.90;98192.62;437065;1250;109376;-42
2023/04/23 06:10:41;;;;;;;30.20;16.90;;;;;;;16.37;48.66;98191.98;436927;1253;96558;-41
2023/04/23 06:30:55;;;;;;;20.70;14.80;;;;;;;18.23;47.66;98191.34;436991;1248;107635;-41
2023/04/23 06:41:02;;;;;;;22.20;14.60;;;;;;;18.64;45.83;98195.08;436925;1251;97861;-42
2023/04/23 06:51:10;;;;;;;21.70;13.10;;;;;;;19.09;45.77;98181.84;437163;1250;108681;-41
2023/04/23 07:01:22;;;;;;;16.50;10.80;;;;;;;19.80;45.03;98176.77;437340;1250;96688;-42
2023/04/23 07:11:30;;;;;;;14.10;9.30;;;;;;;20.41;43.64;98170.77;437307;1247;110264;-42
2023/04/23 07:21:37;;;;;;;15.80;9.30;;;;;;;20.70;43.19;98167.70;437228;1251;107531;-41
2023/04/23 07:31:45;;;;;;;16.40;8.10;;;;;;;21.43;42.74;98163.13;437187;1250;96632;-41
2023/04/23 07:41:53;;;;;;;10.00;7.40;;;;;;;21.79;41.35;98158.13;437412;1250;110000;-40
2023/04/23 07:52:00;;;;;;;10.50;6.30;;;;;;;22.16;41.07;98154.95;437356;1248;107190;-41
2023/04/23 08:02:08;;;;;;;11.40;6.90;;;;;;;22.25;39.46;98147.98;437189;1247;97883;-41
2023/04/23 08:12:16;;;;;;;8.90;5.90;;;;;;;21.76;38.23;98146.22;437269;1250;110291;-40
2023/04/23 08:22:24;;;;;;;9.70;6.10;;;;;;;22.09;38.46;98143.25;437170;1247;108798;-41
2023/04/23 08:32:30;;;;;;;;;;;;;;;22.44;37.70;98140.91;437296;1250;97473;-40
2023/04/23 08:42:37;;;;;;;12.90;5.60;;;;;;;21.90;36.14;98128.73;437090;1250;110797;-40
2023/04/23 08:52:55;;;;;;;13.20;5.10;;;;;;;21.84;35.63;98115.52;436975;1248;108187;-40
2023/04/23 09:03:03;;;;;;;9.80;5.30;;;;;;;22.00;36.28;98108.92;437046;1247;98527;-39
2023/04/23 09:13:14;;;;;;;6.40;4.40;;;;;;;22.25;35.50;98101.02;437022;1250;110072;-40
2023/04/23 09:23:23;;;;;;;8.60;5.00;;;;;;;22.57;36.36;98094.08;437036;1250;107685;-40
2023/04/23 09:33:31;;;;;;;5.90;5.00;;;;;;;22.68;35.36;98084.40;437074;1250;97993;-40
2023/04/23 09:43:41;;;;;;;9.40;4.40;;;;;;;22.83;35.50;98081.98;437262;1250;110298;-40
2023/04/23 09:53:48;;;;;;;7.70;4.20;;;;;;;23.06;35.30;98071.95;436773;1247;108569;-39
2023/04/23 10:03:55;;;;;;;10.90;4.10;;;;;;;22.64;33.71;98054.08;437180;1251;97012;-39
2023/04/23 10:14:03;;;;;;;9.50;5.30;;;;;;;22.43;33.40;98050.03;436497;1250;233043;-41
2023/04/23 10:24:13;;;;;;;6.90;3.90;;;;;;;22.28;35.06;98042.84;436750;1248;108640;-41
2023/04/23 10:34:21;;;;;;;9.40;3.50;;;;;;;23.01;34.79;98025.91;436679;1247;97788;-41
2023/04/23 10:44:31;;;;;;;;;;;;;;;22.77;33.63;98020.64;436718;1260;109871;-41
2023/04/23 10:55:02;;;;;;;7.50;3.30;;;;;;;22.96;34.19;98011.50;436560;1251;107682;-41
2023/04/23 11:05:09;;;;;;;7.90;3.40;;;;;;;23.21;33.95;98007.30;436688;1247;97753;-43
2023/04/23 11:15:19;;;;;;;4.90;3.80;;;;;;;23.08;33.35;98003.96;436674;1251;109689;-41
2023/04/23 11:25:29;;;;;;;7.10;4.30;;;;;;;23.25;34.27;97992.36;436663;1247;109246;-42
2023/04/23 11:45:45;;;;;;;6.30;4.70;;;;;;;23.32;34.50;97976.66;436636;1247;110246;-42
2023/04/23 11:55:55;;;;;;;9.10;4.20;;;;;;;23.58;33.68;97977.52;436528;1247;107782;-41
2023/04/23 12:06:01;;;;;;;7.50;4.30;;;;;;;23.42;33.99;97973.92;436685;1250;97781;-44
2023/04/23 12:16:08;;;;;;;6.20;3.90;;;;;;;23.41;34.20;97965.49;436499;1250;110154;-42
2023/04/23 12:26:20;;;;;;;7.00;4.10;;;;;;;23.55;33.80;97958.70;436467;1247;107439;-41
2023/04/23 12:36:29;;;;;;;6.30;4.00;;;;;;;23.54;34.02;97952.79;436590;1251;96629;-42
2023/04/23 12:46:36;;;;;;;5.10;4.20;;;;;;;23.27;33.39;97945.80;436650;1251;109957;-41
2023/04/23 12:56:44;;;;;;;10.20;4.10;;;;;;;23.00;32.66;97933.53;436647;1249;107003;-42
2023/04/23 13:06:51;;;;;;;5.00;4.40;;;;;;;22.99;32.79;97924.94;436489;1246;97864;-41
2023/04/23 13:16:58;;;;;;;9.10;4.40;;;;;;;22.93;32.84;97921.41;436654;1251;110230;-44
2023/04/23 13:27:06;;;;;;;4.70;4.30;;;;;;;22.58;33.24;97917.16;436500;1251;108534;-41
2023/04/23 13:37:12;;;;;;;;;;;;;;;22.34;33.53;97904.98;436345;1251;97960;-42
2023/04/23 13:47:19;;;;;;;8.40;3.70;;;;;;;22.46;33.64;97899.44;436559;1250;109466;-41
2023/04/23 13:57:26;;;;;;;6.70;3.70;;;;;;;22.26;32.85;97889.96;436511;1247;108647;-42
2023/04/23 14:07:33;;;;;;;4.70;4.30;;;;;;;22.71;32.64;97874.04;436601;1247;118295;-43
2023/04/23 14:17:42;;;;;;;4.40;3.10;;;;;;;22.90;32.77;97869.77;436478;1251;111654;-42
2023/04/23 14:27:55;;;;;;;5.40;4.00;;;;;;;23.19;32.92;97865.05;436497;1246;107135;-42
2023/04/23 14:38:02;;;;;;;7.20;3.50;;;;;;;23.14;33.12;97855.31;436545;1250;96622;-41
2023/04/23 14:48:10;;;;;;;3.90;3.50;;;;;;;22.90;33.10;97850.66;436463;1250;110735;-42
2023/04/23 14:58:17;;;;;;;4.10;3.70;;;;;;;22.49;33.35;97845.06;437511;1250;106901;-43
2023/04/23 15:08:24;;;;;;;7.00;3.50;;;;;;;22.32;33.57;97841.66;436979;1251;97859;-41
2023/04/23 15:18:32;;;;;;;10.00;4.20;;;;;;;22.41;33.95;97846.09;436394;1251;110322;-40
2023/04/23 15:28:40;;;;;;;9.00;4.10;;;;;;;22.04;34.61;97852.63;436503;1247;110264;-43
2023/04/23 15:38:46;;;;;;;7.50;4.50;;;;;;;21.60;35.40;97852.76;436418;1251;97865;-43
2023/04/23 15:48:53;;;;;;;6.30;4.60;;;;;;;21.31;36.03;97849.98;436475;1251;111110;-41
2023/04/23 15:59:01;;;;;;;10.90;4.50;;;;;;;21.20;36.32;97840.27;436496;1246;108349;-42
2023/04/23 16:09:08;;;;;;;4.10;3.70;;;;;;;21.12;36.56;97833.41;436518;1251;97981;-41
2023/04/23 16:19:16;;;;;;;8.00;3.90;;;;;;;20.95;36.70;97824.27;436507;1246;111486;-42
2023/04/23 16:29:22;;;;;;;;;;;;;;;20.79;36.70;97818.87;436540;1251;107054;-43
2023/04/23 16:39:28;;;;;;;6.00;4.30;;;;;;;20.48;36.90;97826.56;436815;1251;98085;-42
2023/04/23 16:49:36;;;;;;;8.80;4.70;;;;;;;20.11;37.91;97835.85;436804;1251;110907;-43
2023/04/23 16:59:43;;;;;;;11.90;5.50;;;;;;;19.71;38.66;97835.23;436456;1251;108542;-42
2023/04/23 17:09:50;;;;;;;8.00;4.90;;;;;;;19.40;39.39;97828.13;436585;1247;97163;-41
2023/04/23 17:19:58;;;;;;;21.30;7.10;;;;;;;19.17;40.07;97824.84;436630;1248;111553;-41
2023/04/23 17:30:06;;;;;;;11.90;6.80;;;;;;;18.89;40.61;97820.30;436532;1248;107407;-41
2023/04/23 17:40:11;;;;;;;8.10;6.30;;;;;;;18.56;41.12;97819.93;436457;1249;98074;-42
2023/04/23 17:50:17;;;;;;;19.70;7.60;;;;;;;18.28;42.00;97821.16;436545;1248;108822;-43
2023/04/23 18:10:30;;;;;;;12.70;8.70;;;;;;;17.52;43.60;97834.39;436488;1253;97500;-42
2023/04/23 18:20:37;;;;;;;20.50;9.30;;;;;;;17.08;44.54;97838.94;436483;1246;109593;-42
2023/04/23 18:30:45;;;;;;;25.10;10.30;;;;;;;16.67;45.57;97845.77;436535;1246;106800;-41
2023/04/23 18:40:52;;;;;;;24.50;12.60;;;;;;;16.25;46.35;97851.80;436482;1250;97877;-41
2023/04/23 18:51:03;;;;;;;80.80;30.30;;;;;;;15.82;47.43;97863.51;436589;1250;111087;-42
2023/04/23 19:01:11;;;;;;;78.50;37.40;;;;;;;15.35;48.56;97865.13;436434;1250;108112;-42
2023/04/23 19:11:18;;;;;;;60.80;32.90;;;;;;;15.05;49.34;97863.34;436568;1252;98014;-40
2023/04/23 19:21:26;;;;;;;152.30;73.30;;;;;;;14.84;50.15;97859.80;436486;1248;108593;-42
2023/04/23 19:31:33;;;;;;;41.10;22.50;;;;;;;14.62;50.82;97864.23;436472;1248;107713;-40
2023/04/23 19:41:41;;;;;;;26.10;15.40;;;;;;;14.44;51.72;97867.17;436430;1252;97865;-43
2023/04/23 19:51:49;;;;;;;29.20;17.90;;;;;;;14.29;52.40;97863.66;436324;1252;111324;-41
2023/04/23 20:01:55;;;;;;;26.90;17.00;;;;;;;14.25;53.08;97859.32;436530;1252;109484;-42
2023/04/23 20:12:02;;;;;;;30.00;18.60;;;;;;;14.16;53.66;97851.84;436672;1252;97856;-42
2023/04/23 20:22:10;;;;;;;26.30;16.90;;;;;;;13.93;54.46;97851.49;436725;1246;110516;-42
2023/04/23 20:32:17;;;;;;;28.40;17.00;;;;;;;13.74;55.17;97851.59;436455;1252;107419;-42
2023/04/23 20:52:32;;;;;;;25.90;17.20;;;;;;;13.46;56.34;97849.13;436712;1252;108936;-42
2023/04/23 21:02:40;;;;;;;30.70;19.00;;;;;;;13.57;56.95;97844.44;436656;1252;108439;-42
2023/04/23 21:12:47;;;;;;;32.10;21.30;;;;;;;13.67;57.55;97838.63;436798;1251;97960;-42
2023/04/23 21:22:53;;;;;;;39.90;23.80;;;;;;;13.59;58.01;97834.88;436856;1252;107201;-42
2023/04/23 21:33:00;;;;;;;41.50;23.90;;;;;;;13.38;58.39;97827.57;436616;1253;100149;-42
2023/04/23 21:43:08;;;;;;;39.40;21.60;;;;;;;13.18;58.74;97823.52;436678;1252;109647;-42
2023/04/23 21:53:15;;;;;;;39.90;25.00;;;;;;;12.99;59.36;97813.73;436423;1251;108645;-42
2023/04/23 22:13:45;;;;;;;38.90;25.70;;;;;;;12.64;60.43;97810.67;436482;1252;604361;-41
2023/04/23 22:23:52;;;;;;;38.90;26.10;;;;;;;12.50;60.84;97809.21;436875;1250;108419;-42
2023/04/23 22:33:58;;;;;;;36.90;23.30;;;;;;;12.27;61.31;97799.16;436449;1260;97753;-43
2023/04/23 22:44:05;;;;;;;36.20;20.80;;;;;;;12.31;61.65;97794.16;436594;1252;108912;-42
2023/04/23 22:54:12;;;;;;;31.40;19.60;;;;;;;12.21;62.25;97780.71;436867;1248;97869;-41
2023/04/23 23:04:20;;;;;;;28.80;18.40;;;;;;;12.23;62.51;97772.19;436416;1252;110371;-45
2023/04/23 23:14:25;;;;;;;28.20;18.10;;;;;;;12.06;62.54;97766.36;436549;1252;108378;-42
2023/04/23 23:24:33;;;;;;;41.50;22.60;;;;;;;11.87;62.90;97752.83;436368;1260;98418;-43
2023/04/23 23:34:41;;;;;;;45.10;27.30;;;;;;;11.83;63.35;97748.47;436786;1252;109922;-42
2023/04/23 23:44:48;;;;;;;58.50;34.00;;;;;;;11.76;63.75;97744.44;437402;1252;107509;-40
2023/04/23 23:54:56;;;;;;;62.30;36.20;;;;;;;11.71;64.19;97735.46;436896;1254;97874;-42
